Terminal Aerodrome Forecast
Issued by NWS

Current Version | Previous Version | Text Only | Print | Product List | Glossary On
Versions: 1 2 3 4 5 6 7 8 9 10 11 12 13 14 15 16 17 18 19 20 21 22 23 24
000
FTAK31 PAJN 270521
TAFAYA
TAF
PAYA 270521Z 2706/2806 VRB03KT P6SM SKC
     FM270900 00000KT 6SM BR FEW001
     FM271800 VRB06KT P6SM SKC
      AMD LTD TO CLD VIS AND WIND 2706/2709=

USA.gov is the U.S. government's official web portal to all federal, state and local government web resources and services.